Time;durP1;ratioP1;P1;durP2;ratioP2;P2;SDS_P1;SDS_P2;PMS_P1;PMS_P2;Temp;Humidity;BMP_temperature;BMP_pressure;BME280_temperature;BME280_humidity;BME280_pressure;Samples;Min_cycle;Max_cycle;Signal;HPM_P1;HPM_P2
2021/01/24 00:00:27;;;;;;;100.50;44.97;;;8.00;87.80;;;;;;5095238;28;20024;-45
2021/01/24 00:02:53;;;;;;;89.93;40.88;;;8.00;87.80;;;;;;5095499;28;20091;-44
2021/01/24 00:05:20;;;;;;;106.15;47.38;;;8.10;87.80;;;;;;5095091;28;20055;-47
2021/01/24 00:07:46;;;;;;;94.78;46.95;;;8.10;87.90;;;;;;5096020;28;20098;-45
2021/01/24 00:10:13;;;;;;;97.50;43.45;;;8.10;87.70;;;;;;5095911;28;20046;-46
2021/01/24 00:12:39;;;;;;;105.25;45.75;;;8.10;87.50;;;;;;5095890;28;20430;-46
2021/01/24 00:15:06;;;;;;;93.70;38.95;;;8.10;87.30;;;;;;5095626;28;20056;-45
2021/01/24 00:17:32;;;;;;;76.90;36.78;;;8.10;87.20;;;;;;5095984;28;20028;-45
2021/01/24 00:19:59;;;;;;;77.13;31.90;;;8.10;87.10;;;;;;5095220;28;20102;-44
2021/01/24 00:22:26;;;;;;;60.70;29.05;;;8.10;87.00;;;;;;5095499;28;20052;-45
2021/01/24 00:24:52;;;;;;;45.22;24.83;;;8.10;87.10;;;;;;5099111;28;20036;-45
2021/01/24 00:27:17;;;;;;;43.92;23.25;;;8.10;87.10;;;;;;5099372;28;20031;-48
2021/01/24 00:29:43;;;;;;;42.08;22.65;;;8.20;87.10;;;;;;5098988;28;20036;-45
2021/01/24 00:32:09;;;;;;;36.42;21.65;;;8.20;87.20;;;;;;5099469;28;20016;-49
2021/01/24 00:34:35;;;;;;;31.08;19.10;;;8.10;87.20;;;;;;5099243;28;20439;-46
2021/01/24 00:37:01;;;;;;;35.25;22.00;;;8.20;87.20;;;;;;5099232;28;20111;-49
2021/01/24 00:39:27;;;;;;;30.98;19.98;;;8.20;87.20;;;;;;5100017;28;20140;-47
2021/01/24 00:41:52;;;;;;;33.63;20.80;;;8.20;87.20;;;;;;5098563;28;20345;-47
2021/01/24 00:44:18;;;;;;;29.45;18.67;;;8.20;87.20;;;;;;5099291;28;20413;-44
2021/01/24 00:46:44;;;;;;;32.90;21.35;;;8.20;87.10;;;;;;5098578;28;20026;-47
2021/01/24 00:49:10;;;;;;;35.22;21.58;;;8.20;87.20;;;;;;5097607;28;20123;-46
2021/01/24 00:51:36;;;;;;;30.13;19.45;;;8.20;87.10;;;;;;5096586;28;20135;-46
2021/01/24 00:54:01;;;;;;;31.10;18.80;;;8.30;87.00;;;;;;5098503;28;20035;-45
2021/01/24 00:56:27;;;;;;;28.75;18.75;;;8.30;87.00;;;;;;5097182;28;20024;-46
2021/01/24 00:58:53;;;;;;;27.70;18.95;;;8.30;86.90;;;;;;5084603;28;20036;-47
2021/01/24 01:01:19;;;;;;;32.15;20.23;;;8.30;86.90;;;;;;5097970;28;20405;-45
2021/01/24 01:03:45;;;;;;;36.17;22.38;;;8.30;87.00;;;;;;5098555;28;20092;-49
2021/01/24 01:06:10;;;;;;;36.42;23.70;;;8.30;87.10;;;;;;5097512;28;20027;-47
2021/01/24 01:08:36;;;;;;;42.47;26.10;;;8.30;87.00;;;;;;5097938;28;20031;-51
2021/01/24 01:11:02;;;;;;;41.50;25.98;;;8.30;87.10;;;;;;5097339;28;20152;-50
2021/01/24 01:13:28;;;;;;;41.70;27.23;;;8.30;87.20;;;;;;5097281;28;20081;-49
2021/01/24 01:15:54;;;;;;;48.92;26.90;;;8.30;87.30;;;;;;5097329;28;20445;-49
2021/01/24 01:18:19;;;;;;;55.67;30.83;;;8.30;87.20;;;;;;5097116;28;20040;-49
2021/01/24 01:20:45;;;;;;;62.45;32.33;;;8.40;87.30;;;;;;5097872;28;20024;-50
2021/01/24 01:23:11;;;;;;;66.47;30.98;;;8.40;87.40;;;;;;5091583;28;20403;-49
2021/01/24 01:25:36;;;;;;;80.65;35.20;;;8.40;87.50;;;;;;5080868;28;20429;-49
2021/01/24 01:28:02;;;;;;;110.63;43.42;;;8.40;87.50;;;;;;5083973;28;20035;-49
2021/01/24 01:30:28;;;;;;;130.85;49.00;;;8.40;87.50;;;;;;5078120;28;20353;-49
2021/01/24 01:32:54;;;;;;;151.50;51.30;;;8.40;87.50;;;;;;5077077;28;20066;-47
2021/01/24 01:35:19;;;;;;;146.88;49.95;;;8.40;87.30;;;;;;5077153;28;20373;-45
2021/01/24 01:37:45;;;;;;;143.68;50.67;;;8.40;87.40;;;;;;5078225;28;20312;-47
2021/01/24 01:40:11;;;;;;;153.93;52.05;;;8.30;87.40;;;;;;5078219;28;20060;-47
2021/01/24 01:42:37;;;;;;;145.38;51.45;;;8.30;87.40;;;;;;5076640;28;20085;-45
2021/01/24 01:45:04;;;;;;;133.75;53.85;;;8.30;87.60;;;;;;5078068;28;20062;-47
2021/01/24 01:47:30;;;;;;;119.43;49.47;;;8.30;87.50;;;;;;5094553;28;20429;-45
2021/01/24 01:49:58;;;;;;;105.95;45.45;;;8.30;87.70;;;;;;5097299;28;20042;-45
2021/01/24 01:52:25;;;;;;;90.65;44.22;;;8.20;87.70;;;;;;5098193;28;20028;-46
2021/01/24 01:54:52;;;;;;;112.78;46.80;;;8.20;87.80;;;;;;5097461;28;20118;-45
2021/01/24 01:57:18;;;;;;;102.25;41.97;;;8.20;87.90;;;;;;5097382;28;20437;-45
2021/01/24 01:59:43;;;;;;;84.68;39.08;;;8.20;88.10;;;;;;5097728;28;20052;-45
2021/01/24 02:02:35;;;;;;;77.15;35.40;;;8.20;88.00;;;;;;5097734;28;20074;-47
2021/01/24 02:05:07;;;;;;;95.18;38.53;;;8.20;88.10;;;;;;5097685;28;20578;-45
2021/01/24 02:07:46;;;;;;;75.25;33.30;;;8.20;88.30;;;;;;5097573;28;20070;-44
2021/01/24 02:10:29;;;;;;;72.97;32.80;;;8.20;88.30;;;;;;5097794;28;20372;-45
2021/01/24 02:13:13;;;;;;;69.80;32.17;;;8.20;88.20;;;;;;5097797;28;20047;-46
2021/01/24 02:15:42;;;;;;;50.55;26.00;;;8.10;88.10;;;;;;5097474;28;20027;-47
2021/01/24 02:18:09;;;;;;;51.53;25.13;;;8.10;88.20;;;;;;5097744;28;20028;-45
2021/01/24 02:20:38;;;;;;;59.13;27.90;;;8.10;88.30;;;;;;5097396;28;20038;-45
2021/01/24 02:23:06;;;;;;;52.67;26.20;;;8.10;88.40;;;;;;5097335;28;20055;-44
2021/01/24 02:26:09;;;;;;;61.88;27.80;;;8.10;88.40;;;;;;5096799;28;20127;-45
2021/01/24 02:28:56;;;;;;;61.83;28.55;;;8.10;88.30;;;;;;5097651;28;20385;-47
2021/01/24 02:31:24;;;;;;;56.47;27.80;;;8.10;88.40;;;;;;5098016;28;20024;-44
2021/01/24 02:33:52;;;;;;;62.00;27.98;;;8.10;88.50;;;;;;5090901;28;20035;-45
2021/01/24 02:36:20;;;;;;;48.95;25.95;;;8.10;88.50;;;;;;5080912;28;20024;-45
2021/01/24 02:38:46;;;;;;;51.00;25.15;;;8.10;88.40;;;;;;5076918;28;20059;-46
2021/01/24 02:41:16;;;;;;;42.83;22.77;;;8.10;88.60;;;;;;5076085;28;20028;-47
2021/01/24 02:43:45;;;;;;;54.58;26.17;;;8.10;88.50;;;;;;5076760;28;20098;-44
2021/01/24 02:46:12;;;;;;;47.55;25.67;;;8.10;88.80;;;;;;5081229;28;20072;-46
2021/01/24 02:48:39;;;;;;;60.25;29.50;;;8.10;88.80;;;;;;5096327;28;20387;-45
2021/01/24 02:51:06;;;;;;;50.33;29.25;;;8.10;88.90;;;;;;5096416;28;20028;-45
2021/01/24 02:53:33;;;;;;;58.40;31.27;;;8.10;88.80;;;;;;5095145;28;20089;-46
2021/01/24 02:56:01;;;;;;;54.80;30.23;;;8.10;88.80;;;;;;5091380;28;20349;-46
2021/01/24 02:58:29;;;;;;;50.80;28.95;;;8.10;88.90;;;;;;5096602;28;20032;-44
2021/01/24 03:00:54;;;;;;;51.10;28.30;;;8.10;88.90;;;;;;5096505;28;20093;-44
2021/01/24 03:03:20;;;;;;;45.85;26.08;;;8.10;88.90;;;;;;5096403;28;20052;-45
2021/01/24 03:05:46;;;;;;;52.47;27.63;;;8.10;88.90;;;;;;5096291;28;20028;-45
2021/01/24 03:08:12;;;;;;;44.53;27.35;;;8.20;89.00;;;;;;5096544;28;20028;-45
2021/01/24 03:10:38;;;;;;;47.53;29.83;;;8.20;88.90;;;;;;5095418;28;20341;-45
2021/01/24 03:13:10;;;;;;;42.67;26.20;;;8.20;89.00;;;;;;5096389;28;20030;-45
2021/01/24 03:15:38;;;;;;;52.65;28.92;;;8.20;89.00;;;;;;5096081;28;20031;-45
2021/01/24 03:18:08;;;;;;;50.70;27.42;;;8.20;88.90;;;;;;5096469;28;20032;-45
2021/01/24 03:20:36;;;;;;;39.90;24.35;;;8.20;88.80;;;;;;5096081;28;20031;-45
2021/01/24 03:23:03;;;;;;;42.22;25.05;;;8.20;88.80;;;;;;5096084;28;20068;-44
2021/01/24 03:25:30;;;;;;;42.85;25.30;;;8.30;88.90;;;;;;5094455;28;20024;-45
2021/01/24 03:27:57;;;;;;;45.45;25.58;;;8.30;88.70;;;;;;5094968;28;20035;-45
2021/01/24 03:30:22;;;;;;;41.75;23.15;;;8.30;88.70;;;;;;5094695;28;20028;-45
2021/01/24 03:32:49;;;;;;;40.00;25.42;;;8.30;88.60;;;;;;5095061;28;20092;-46
2021/01/24 03:35:14;;;;;;;42.47;28.02;;;8.40;88.70;;;;;;5095858;28;20089;-46
2021/01/24 03:37:40;;;;;;;50.28;27.83;;;8.40;88.60;;;;;;5096476;28;20028;-48
2021/01/24 03:40:06;;;;;;;51.17;29.75;;;8.40;88.40;;;;;;5095675;28;20449;-45
2021/01/24 03:42:32;;;;;;;40.65;27.60;;;8.40;88.30;;;;;;5096303;28;20067;-45
2021/01/24 03:44:58;;;;;;;50.85;27.08;;;8.40;88.10;;;;;;5095452;28;20051;-45
2021/01/24 03:47:23;;;;;;;50.13;29.00;;;8.40;88.20;;;;;;5094129;28;20437;-48
2021/01/24 03:49:49;;;;;;;48.70;29.15;;;8.50;88.10;;;;;;5095242;28;20050;-45
2021/01/24 03:52:15;;;;;;;46.42;25.23;;;8.50;88.00;;;;;;5095255;28;20031;-46
2021/01/24 03:54:40;;;;;;;41.40;24.30;;;8.40;88.00;;;;;;5093390;28;20027;-47
2021/01/24 03:57:06;;;;;;;50.25;30.33;;;8.50;88.10;;;;;;5094580;28;20028;-46
2021/01/24 03:59:32;;;;;;;39.53;24.60;;;8.50;88.20;;;;;;5094650;28;20028;-46
2021/01/24 04:01:57;;;;;;;41.42;26.45;;;8.50;88.00;;;;;;5093814;28;20037;-48
2021/01/24 04:04:23;;;;;;;46.08;25.42;;;8.50;87.90;;;;;;5094326;28;20066;-46
2021/01/24 04:06:49;;;;;;;42.70;25.45;;;8.50;88.00;;;;;;5094079;28;20016;-47
2021/01/24 04:09:15;;;;;;;44.65;25.88;;;8.60;87.80;;;;;;5086393;28;20042;-46
2021/01/24 04:11:40;;;;;;;41.63;23.13;;;8.60;87.80;;;;;;5092136;28;20405;-46
2021/01/24 04:14:06;;;;;;;38.25;20.95;;;8.60;87.80;;;;;;5093271;28;20055;-44
2021/01/24 04:16:32;;;;;;;46.85;23.70;;;8.60;87.70;;;;;;5093665;28;20330;-46
2021/01/24 04:18:58;;;;;;;42.38;24.05;;;8.60;87.90;;;;;;5094070;28;20440;-45
2021/01/24 04:21:23;;;;;;;34.47;21.90;;;8.60;88.00;;;;;;5097730;28;20044;-46
2021/01/24 04:23:49;;;;;;;46.88;25.77;;;8.70;87.90;;;;;;5109946;28;20043;-46
2021/01/24 04:26:15;;;;;;;42.28;23.00;;;8.60;87.70;;;;;;5083001;28;20036;-47
2021/01/24 04:28:40;;;;;;;34.20;19.60;;;8.70;87.60;;;;;;5075987;28;20131;-46
2021/01/24 04:31:06;;;;;;;39.63;22.50;;;8.70;87.50;;;;;;5098966;28;20030;-46
2021/01/24 04:33:32;;;;;;;37.47;20.17;;;8.70;87.40;;;;;;5102840;28;20032;-49
2021/01/24 04:35:57;;;;;;;40.75;23.75;;;8.70;87.50;;;;;;5090537;28;20021;-50
2021/01/24 04:38:23;;;;;;;43.00;23.70;;;8.70;87.40;;;;;;5108211;28;20081;-45
2021/01/24 04:40:49;;;;;;;43.33;23.35;;;8.70;87.20;;;;;;5101735;28;20042;-46
2021/01/24 04:43:15;;;;;;;50.17;24.30;;;8.70;87.20;;;;;;5084823;28;20044;-45
2021/01/24 04:45:41;;;;;;;47.05;24.98;;;8.80;87.20;;;;;;5079820;28;20028;-49
2021/01/24 04:48:09;;;;;;;44.53;25.08;;;8.80;87.00;;;;;;5090363;28;20021;-48
2021/01/24 04:50:37;;;;;;;50.00;24.85;;;8.80;86.90;;;;;;5103026;28;20077;-44
2021/01/24 04:53:03;;;;;;;42.05;24.95;;;8.80;86.60;;;;;;5112732;28;20080;-48
2021/01/24 04:55:30;;;;;;;41.75;24.85;;;8.80;86.50;;;;;;5094886;28;20420;-46
2021/01/24 04:57:57;;;;;;;45.85;23.25;;;8.80;86.40;;;;;;5095160;28;20028;-47
2021/01/24 05:00:23;;;;;;;42.47;21.63;;;8.80;86.30;;;;;;5083327;28;20028;-45
2021/01/24 05:02:49;;;;;;;37.78;20.38;;;8.80;86.20;;;;;;5112111;28;20053;-46
2021/01/24 05:05:15;;;;;;;40.58;20.30;;;8.80;86.20;;;;;;5081029;28;20052;-47
2021/01/24 05:07:55;;;;;;;38.90;22.35;;;8.80;86.00;;;;;;5108349;28;20031;-45
2021/01/24 05:10:26;;;;;;;47.20;22.95;;;8.80;86.00;;;;;;5106426;28;20055;-45
2021/01/24 05:12:53;;;;;;;31.58;18.70;;;8.70;85.80;;;;;;5113759;28;20034;-45
2021/01/24 05:15:20;;;;;;;42.80;21.92;;;8.70;85.80;;;;;;5118226;28;20031;-47
2021/01/24 05:17:59;;;;;;;40.70;21.48;;;8.70;85.80;;;;;;5089730;28;20085;-46
2021/01/24 05:20:27;;;;;;;49.10;22.08;;;8.70;85.70;;;;;;5110597;28;20442;-46
2021/01/24 05:22:56;;;;;;;40.92;21.73;;;8.70;85.70;;;;;;5098639;28;20094;-46
2021/01/24 05:25:26;;;;;;;41.70;21.92;;;8.60;85.50;;;;;;5103995;28;20032;-46
2021/01/24 05:27:53;;;;;;;48.55;24.08;;;8.60;85.60;;;;;;5118521;28;20387;-45
2021/01/24 05:30:30;;;;;;;33.50;19.90;;;8.60;85.60;;;;;;5117918;28;20055;-46
2021/01/24 05:32:58;;;;;;;46.33;23.60;;;8.60;85.60;;;;;;5118764;28;20074;-47
2021/01/24 05:35:25;;;;;;;45.75;25.98;;;8.50;85.60;;;;;;5113042;28;20036;-46
2021/01/24 05:37:51;;;;;;;38.28;20.63;;;8.60;85.70;;;;;;5118528;28;20024;-48
2021/01/24 05:40:17;;;;;;;46.15;21.88;;;8.60;85.80;;;;;;5107633;28;20051;-45
2021/01/24 05:42:45;;;;;;;39.60;20.67;;;8.50;85.70;;;;;;5087191;28;20071;-46
2021/01/24 05:45:16;;;;;;;40.00;20.67;;;8.60;85.70;;;;;;5085702;28;20080;-45
2021/01/24 05:47:43;;;;;;;57.42;28.10;;;8.60;85.80;;;;;;5101246;28;20039;-46
2021/01/24 05:50:14;;;;;;;61.50;27.48;;;8.60;85.90;;;;;;5105386;28;20438;-46
2021/01/24 05:52:45;;;;;;;54.80;26.88;;;8.60;85.80;;;;;;5104548;28;20030;-46
2021/01/24 05:55:32;;;;;;;63.50;25.92;;;8.60;85.80;;;;;;5117128;28;20147;-48
2021/01/24 05:57:58;;;;;;;55.78;27.02;;;8.60;85.80;;;;;;5094913;28;20025;-45
2021/01/24 06:00:24;;;;;;;53.60;27.25;;;8.60;85.70;;;;;;5093144;28;20038;-46
2021/01/24 06:02:51;;;;;;;68.55;31.15;;;8.60;85.50;;;;;;5118138;28;20038;-47
2021/01/24 06:05:17;;;;;;;86.65;33.88;;;8.70;85.50;;;;;;5104355;28;20024;-48
2021/01/24 06:07:43;;;;;;;79.15;35.88;;;8.70;85.50;;;;;;5096400;28;20043;-49
2021/01/24 06:10:09;;;;;;;92.30;37.80;;;8.70;85.50;;;;;;5104039;28;20031;-48
2021/01/24 06:12:36;;;;;;;106.03;42.10;;;8.70;85.60;;;;;;5112900;28;20407;-46
2021/01/24 06:15:04;;;;;;;100.40;40.78;;;8.80;85.40;;;;;;5115981;28;20078;-46
2021/01/24 06:17:41;;;;;;;97.07;39.38;;;8.80;85.10;;;;;;5115678;28;20027;-45
2021/01/24 06:20:08;;;;;;;81.15;34.58;;;8.80;84.90;;;;;;5110522;27;20418;-46
2021/01/24 06:22:56;;;;;;;77.57;34.38;;;8.80;84.90;;;;;;5083549;28;20052;-47
2021/01/24 06:25:26;;;;;;;63.88;28.50;;;8.80;84.80;;;;;;5095172;28;20438;-48
2021/01/24 06:27:58;;;;;;;59.47;27.77;;;8.80;84.60;;;;;;5097189;28;20069;-45
2021/01/24 06:30:26;;;;;;;58.53;24.35;;;8.80;84.40;;;;;;5099860;28;20027;-47
2021/01/24 06:32:52;;;;;;;53.28;23.15;;;8.80;84.20;;;;;;5115618;28;20034;-47
2021/01/24 06:35:27;;;;;;;53.72;23.55;;;8.80;84.10;;;;;;5109600;28;20032;-49
2021/01/24 06:38:01;;;;;;;47.00;22.70;;;8.80;84.00;;;;;;5099446;28;20033;-47
2021/01/24 06:40:31;;;;;;;39.67;21.02;;;8.80;84.50;;;;;;5103764;28;20026;-47
2021/01/24 06:43:04;;;;;;;41.28;18.52;;;8.80;83.90;;;;;;5098328;28;20043;-45
2021/01/24 06:45:29;;;;;;;31.25;16.95;;;8.80;84.00;;;;;;5096318;28;20395;-47
2021/01/24 06:47:58;;;;;;;35.50;17.42;;;8.80;83.90;;;;;;5100216;28;20024;-46
2021/01/24 06:50:46;;;;;;;37.47;19.48;;;8.80;83.80;;;;;;5113066;28;20019;-46
2021/01/24 06:53:17;;;;;;;40.17;18.73;;;8.90;83.80;;;;;;5092105;28;20043;-46
2021/01/24 06:55:59;;;;;;;37.78;20.80;;;8.90;83.80;;;;;;5096607;28;20465;-45
2021/01/24 06:58:26;;;;;;;41.35;20.52;;;8.90;83.60;;;;;;5093210;28;20557;-45
2021/01/24 07:01:12;;;;;;;44.78;21.05;;;8.90;83.60;;;;;;5091231;28;20020;-48
2021/01/24 07:03:38;;;;;;;48.35;22.52;;;8.90;83.50;;;;;;5093729;28;20428;-45
2021/01/24 07:06:33;;;;;;;51.60;26.08;;;8.90;83.20;;;;;;5094609;28;20024;-49
2021/01/24 07:08:59;;;;;;;43.95;20.20;;;8.90;83.00;;;;;;5094873;28;20020;-46
2021/01/24 07:11:52;;;;;;;41.72;20.25;;;9.00;83.10;;;;;;5092522;28;20165;-48
2021/01/24 07:14:48;;;;;;;41.90;18.35;;;9.00;82.70;;;;;;5082207;28;20047;-46
2021/01/24 07:17:16;;;;;;;40.55;19.20;;;9.00;82.90;;;;;;5075468;28;20430;-47
2021/01/24 07:19:52;;;;;;;31.05;16.02;;;9.00;82.70;;;;;;5087528;28;20028;-50
2021/01/24 07:22:19;;;;;;;34.65;16.98;;;9.00;82.40;;;;;;5104451;28;20057;-50
2021/01/24 07:24:46;;;;;;;31.98;15.30;;;9.10;82.40;;;;;;5102343;28;20050;-52
2021/01/24 07:27:37;;;;;;;30.42;15.07;;;9.10;82.40;;;;;;5095471;28;20024;-51
2021/01/24 07:30:06;;;;;;;24.85;14.38;;;9.10;82.10;;;;;;5094845;28;20028;-53
2021/01/24 07:32:32;;;;;;;26.77;14.32;;;9.10;82.00;;;;;;5089299;28;20024;-50
2021/01/24 07:34:58;;;;;;;28.27;15.57;;;9.10;81.90;;;;;;5093878;28;20035;-50
2021/01/24 07:37:24;;;;;;;42.17;20.52;;;9.20;82.00;;;;;;5092453;28;20030;-50
2021/01/24 07:39:51;;;;;;;43.15;20.73;;;9.20;81.90;;;;;;5095830;28;20024;-53
2021/01/24 07:42:18;;;;;;;53.40;23.48;;;9.20;81.80;;;;;;5094813;28;20414;-49
2021/01/24 07:44:44;;;;;;;46.42;21.20;;;9.20;81.60;;;;;;5089767;28;20375;-49
2021/01/24 07:47:12;;;;;;;36.38;16.70;;;9.30;81.60;;;;;;5092101;28;20028;-51
2021/01/24 07:49:38;;;;;;;29.60;15.43;;;9.30;81.30;;;;;;5091480;28;20032;-52
2021/01/24 07:52:07;;;;;;;31.50;17.30;;;9.30;81.00;;;;;;5087075;28;20069;-52
2021/01/24 07:54:34;;;;;;;26.42;15.52;;;9.30;80.80;;;;;;5085167;28;20039;-52
2021/01/24 07:57:01;;;;;;;25.40;13.90;;;9.40;80.90;;;;;;5094229;28;20031;-50
2021/01/24 07:59:28;;;;;;;30.63;16.08;;;9.40;80.90;;;;;;5094304;28;20032;-50
2021/01/24 08:01:53;;;;;;;26.02;14.70;;;9.50;80.80;;;;;;5094114;28;20020;-55
2021/01/24 08:04:23;;;;;;;28.17;15.88;;;9.50;80.60;;;;;;5095192;28;20051;-51
2021/01/24 08:06:49;;;;;;;29.65;15.68;;;9.50;80.40;;;;;;5094244;28;20025;-51
2021/01/24 08:09:16;;;;;;;29.73;15.35;;;9.60;80.30;;;;;;5095293;28;20064;-53
2021/01/24 08:11:42;;;;;;;26.95;14.45;;;9.60;80.30;;;;;;5095323;28;20031;-48
2021/01/24 08:14:08;;;;;;;26.58;15.40;;;9.60;80.00;;;;;;5095482;28;20036;-50
2021/01/24 08:16:41;;;;;;;30.48;14.98;;;9.70;80.00;;;;;;5095138;28;20059;-49
2021/01/24 08:19:10;;;;;;;32.50;17.60;;;9.70;79.70;;;;;;5095665;28;20054;-50
2021/01/24 08:21:37;;;;;;;33.95;18.65;;;9.70;79.70;;;;;;5090829;28;20060;-51
2021/01/24 08:24:04;;;;;;;36.30;16.85;;;9.70;79.60;;;;;;5090691;28;20039;-51
2021/01/24 08:26:30;;;;;;;31.90;16.50;;;9.80;79.40;;;;;;5089286;28;20035;-50
2021/01/24 08:28:57;;;;;;;40.85;20.33;;;9.80;79.40;;;;;;5091637;28;20032;-50
2021/01/24 08:31:23;;;;;;;46.25;18.17;;;9.90;79.40;;;;;;5091134;28;20016;-52
2021/01/24 08:33:54;;;;;;;46.15;20.65;;;9.90;79.10;;;;;;5094335;28;20063;-50
2021/01/24 08:36:22;;;;;;;51.97;21.85;;;10.00;79.10;;;;;;5093355;28;20028;-54
2021/01/24 08:38:49;;;;;;;55.92;25.17;;;10.00;79.00;;;;;;5081247;28;20037;-50
2021/01/24 08:41:16;;;;;;;64.15;25.83;;;10.10;78.90;;;;;;5076525;28;20063;-50
2021/01/24 08:43:42;;;;;;;72.18;30.10;;;10.10;78.60;;;;;;5094751;28;20347;-52
2021/01/24 08:46:26;;;;;;;75.82;31.02;;;10.10;78.60;;;;;;5097582;28;20020;-52
2021/01/24 08:49:25;;;;;;;79.82;34.35;;;10.20;78.30;;;;;;5097951;28;20055;-46
2021/01/24 08:51:55;;;;;;;81.75;33.35;;;10.30;78.00;;;;;;5075106;28;20067;-46
2021/01/24 08:54:29;;;;;;;71.90;33.15;;;10.20;77.90;;;;;;5096075;28;20032;-48
2021/01/24 08:57:18;;;;;;;64.13;31.05;;;10.30;77.80;;;;;;5093122;28;20020;-47
2021/01/24 08:59:49;;;;;;;67.65;31.55;;;10.30;77.60;;;;;;5091011;28;20024;-47
2021/01/24 09:02:27;;;;;;;61.47;29.42;;;10.40;77.70;;;;;;5090010;28;20456;-50
2021/01/24 09:04:53;;;;;;;58.28;27.83;;;10.40;77.50;;;;;;5079848;28;20472;-48
2021/01/24 09:07:20;;;;;;;49.67;24.45;;;10.40;77.40;;;;;;5097925;28;20452;-54
2021/01/24 09:09:48;;;;;;;56.38;26.05;;;10.40;77.00;;;;;;5099855;28;20024;-47
2021/01/24 09:12:16;;;;;;;70.88;33.38;;;10.40;76.60;;;;;;5114252;28;20023;-48
2021/01/24 09:14:42;;;;;;;54.38;26.23;;;10.50;76.90;;;;;;5103390;28;20425;-48
2021/01/24 09:17:11;;;;;;;42.28;19.98;;;10.50;76.60;;;;;;5089911;28;20020;-50
2021/01/24 09:19:44;;;;;;;31.92;16.85;;;10.50;76.30;;;;;;5090128;28;20549;-48
2021/01/24 09:22:12;;;;;;;30.58;14.13;;;10.50;76.20;;;;;;5111852;27;20449;-49
2021/01/24 09:24:39;;;;;;;29.35;15.30;;;10.60;76.20;;;;;;5077284;28;20048;-54
2021/01/24 09:27:07;;;;;;;29.75;14.65;;;10.60;76.20;;;;;;5100035;28;20387;-49
2021/01/24 09:29:34;;;;;;;29.83;15.13;;;10.60;76.30;;;;;;5096413;28;20035;-48
2021/01/24 09:32:01;;;;;;;26.40;15.02;;;10.60;76.10;;;;;;5090699;28;20042;-49
2021/01/24 09:34:27;;;;;;;23.88;14.98;;;10.60;76.00;;;;;;5092929;28;20514;-49
2021/01/24 09:36:53;;;;;;;29.70;16.45;;;10.70;76.30;;;;;;5095730;28;20032;-47
2021/01/24 09:39:19;;;;;;;25.85;12.25;;;10.70;76.10;;;;;;5099003;28;20028;-51
2021/01/24 09:41:45;;;;;;;21.58;11.80;;;10.70;76.20;;;;;;5115053;28;20023;-47
2021/01/24 09:44:11;;;;;;;22.33;11.18;;;10.80;76.10;;;;;;5115275;28;20066;-47
2021/01/24 09:46:37;;;;;;;21.10;10.73;;;10.80;76.20;;;;;;5098349;28;20024;-48
2021/01/24 09:49:03;;;;;;;23.83;11.98;;;10.80;76.00;;;;;;5093268;28;20020;-47
2021/01/24 09:51:30;;;;;;;24.98;14.82;;;10.90;75.90;;;;;;5096413;28;20023;-51
2021/01/24 09:53:57;;;;;;;24.85;13.05;;;10.90;75.80;;;;;;5100314;28;20357;-50
2021/01/24 09:56:28;;;;;;;31.67;14.23;;;10.90;75.80;;;;;;5091241;28;20039;-50
2021/01/24 09:58:58;;;;;;;;;;;11.00;75.60;;;;;;5097628;28;20148;-54
2021/01/24 10:01:25;;;;;;;27.35;15.38;;;11.10;76.30;;;;;;5098533;28;19924;-51
2021/01/24 10:03:52;;;;;;;24.63;13.50;;;11.10;75.70;;;;;;5102724;28;20043;-47
2021/01/24 10:06:20;;;;;;;24.30;13.20;;;11.10;75.60;;;;;;5110264;28;20024;-47
2021/01/24 10:08:46;;;;;;;29.75;14.35;;;11.10;75.10;;;;;;5099492;28;20028;-47
2021/01/24 10:11:12;;;;;;;20.90;10.80;;;11.20;75.50;;;;;;5096608;28;20112;-46
2021/01/24 10:13:40;;;;;;;20.55;11.25;;;11.20;74.90;;;;;;5118146;28;20135;-47
2021/01/24 10:16:07;;;;;;;20.38;11.40;;;11.20;75.00;;;;;;5104746;28;20048;-48
2021/01/24 10:18:32;;;;;;;18.80;12.02;;;11.20;74.70;;;;;;5089366;28;20043;-51
2021/01/24 10:20:58;;;;;;;21.25;12.60;;;11.20;74.80;;;;;;5099763;28;20024;-47
2021/01/24 10:23:25;;;;;;;15.57;9.52;;;11.20;75.00;;;;;;5098228;28;20062;-48
2021/01/24 10:25:54;;;;;;;17.67;9.23;;;11.20;74.60;;;;;;5115179;28;20400;-48
2021/01/24 10:28:21;;;;;;;20.88;10.80;;;11.30;74.90;;;;;;5098179;28;20020;-45
2021/01/24 10:30:48;;;;;;;19.63;11.40;;;11.30;74.70;;;;;;5108597;28;20024;-47
2021/01/24 10:33:14;;;;;;;17.15;10.18;;;11.30;74.80;;;;;;5113610;28;20024;-48
2021/01/24 10:35:41;;;;;;;23.13;12.57;;;11.40;74.80;;;;;;5097193;28;20111;-49
2021/01/24 10:38:07;;;;;;;21.27;12.10;;;11.40;74.70;;;;;;5098242;28;20081;-47
2021/01/24 10:40:34;;;;;;;24.90;15.57;;;11.40;74.80;;;;;;5100585;28;20102;-47
2021/01/24 10:43:02;;;;;;;26.33;13.60;;;11.50;74.60;;;;;;5097698;28;20048;-52
2021/01/24 10:45:28;;;;;;;22.50;11.43;;;11.50;74.60;;;;;;5076804;28;20037;-48
2021/01/24 10:47:54;;;;;;;18.52;12.27;;;11.60;74.20;;;;;;5097411;28;20027;-47
2021/01/24 10:50:20;;;;;;;15.60;9.32;;;11.60;74.60;;;;;;5089274;28;20059;-46
2021/01/24 10:52:46;;;;;;;21.05;10.20;;;11.60;74.30;;;;;;5086240;28;20047;-48
2021/01/24 10:55:12;;;;;;;14.77;9.32;;;11.70;74.10;;;;;;5079416;28;20028;-45
2021/01/24 10:57:41;;;;;;;19.25;11.60;;;11.70;74.20;;;;;;5090475;28;20020;-48
2021/01/24 11:00:08;;;;;;;19.40;9.75;;;11.80;74.00;;;;;;5102125;28;20023;-46
2021/01/24 11:02:33;;;;;;;18.52;11.27;;;11.80;73.70;;;;;;5111134;28;20059;-45
2021/01/24 11:04:59;;;;;;;21.98;13.43;;;11.90;74.10;;;;;;5096561;28;20074;-45
2021/01/24 11:07:26;;;;;;;14.82;9.48;;;12.00;74.20;;;;;;5097232;28;20027;-47
2021/01/24 11:09:54;;;;;;;14.60;9.77;;;12.10;73.70;;;;;;5097190;28;20032;-47
2021/01/24 11:12:20;;;;;;;15.68;8.68;;;12.10;73.50;;;;;;5094643;28;20016;-46
2021/01/24 11:14:46;;;;;;;20.60;11.85;;;12.20;72.70;;;;;;5086437;28;20032;-46
2021/01/24 11:17:13;;;;;;;16.67;9.10;;;12.20;72.70;;;;;;5088922;28;20059;-49
2021/01/24 11:19:39;;;;;;;15.48;9.38;;;12.20;72.40;;;;;;5090630;28;20031;-48
2021/01/24 11:22:05;;;;;;;20.80;10.70;;;12.30;72.40;;;;;;5116066;28;20504;-46
2021/01/24 11:24:31;;;;;;;24.85;12.85;;;12.30;72.40;;;;;;5115227;28;20035;-48
2021/01/24 11:26:57;;;;;;;14.38;9.35;;;12.30;72.50;;;;;;5111926;28;20110;-47
2021/01/24 11:29:24;;;;;;;15.30;10.35;;;12.40;72.70;;;;;;5116387;28;20114;-48
2021/01/24 11:31:50;;;;;;;15.23;9.88;;;12.40;72.20;;;;;;5083176;28;20035;-45
2021/01/24 11:34:16;;;;;;;21.25;10.88;;;12.40;71.90;;;;;;5073581;28;20032;-51
2021/01/24 11:36:43;;;;;;;18.50;9.63;;;12.40;71.70;;;;;;5090832;28;20349;-48
2021/01/24 11:39:10;;;;;;;18.52;10.05;;;12.40;71.70;;;;;;5093919;28;20035;-49
2021/01/24 11:41:35;;;;;;;18.98;10.68;;;12.40;71.00;;;;;;5093047;28;20352;-51
2021/01/24 11:44:01;;;;;;;18.27;9.75;;;12.30;71.30;;;;;;5095112;28;20147;-47
2021/01/24 11:46:27;;;;;;;17.75;12.23;;;12.30;71.20;;;;;;5094658;28;20026;-49
2021/01/24 11:48:52;;;;;;;17.48;9.25;;;12.20;71.30;;;;;;5079141;28;20036;-47
2021/01/24 11:51:20;;;;;;;18.92;11.02;;;12.20;71.50;;;;;;5090960;28;20058;-50
2021/01/24 11:53:46;;;;;;;18.88;10.30;;;12.20;71.40;;;;;;5090094;28;20036;-46
2021/01/24 11:56:12;;;;;;;14.35;9.30;;;12.10;71.70;;;;;;5080763;28;20546;-47
2021/01/24 11:58:40;;;;;;;15.98;10.45;;;12.10;71.80;;;;;;5095958;28;20040;-48
2021/01/24 12:01:06;;;;;;;21.05;11.15;;;12.10;72.00;;;;;;5095518;28;20063;-49
2021/01/24 12:03:32;;;;;;;25.50;12.93;;;12.10;72.10;;;;;;5100771;28;20089;-48
2021/01/24 12:05:58;;;;;;;21.63;11.25;;;12.10;72.10;;;;;;5097326;28;20020;-49
2021/01/24 12:08:23;;;;;;;18.88;10.70;;;12.20;72.20;;;;;;5113433;28;20114;-48
2021/01/24 12:10:49;;;;;;;17.98;10.20;;;12.20;72.30;;;;;;5114360;28;20119;-49
2021/01/24 12:13:15;;;;;;;25.15;15.13;;;12.20;72.20;;;;;;5102702;28;20032;-47
2021/01/24 12:15:41;;;;;;;22.00;11.65;;;12.20;72.20;;;;;;5107239;28;20023;-49
2021/01/24 12:18:07;;;;;;;20.20;12.20;;;12.20;72.20;;;;;;5108786;28;20027;-47
2021/01/24 12:20:33;;;;;;;21.70;13.35;;;12.30;72.10;;;;;;5097590;28;20027;-47
2021/01/24 12:22:58;;;;;;;26.60;16.60;;;12.30;71.90;;;;;;5094813;28;20056;-47
2021/01/24 12:25:24;;;;;;;22.67;14.02;;;12.40;72.20;;;;;;5091739;28;20036;-48
2021/01/24 12:27:50;;;;;;;15.20;12.48;;;12.40;72.30;;;;;;5101101;28;20043;-47
2021/01/24 12:30:16;;;;;;;11.77;8.35;;;12.40;72.10;;;;;;5099025;28;20433;-48
2021/01/24 12:32:42;;;;;;;16.23;9.80;;;12.40;71.60;;;;;;5115475;28;20027;-47
2021/01/24 12:35:08;;;;;;;13.32;7.13;;;12.40;71.50;;;;;;5119245;28;20044;-51
2021/01/24 12:37:35;;;;;;;17.55;9.90;;;12.40;71.20;;;;;;5107104;28;20046;-49